Upernavik

KL  EN  DA
ASIAQ
Weather Now GREENLAND SURVEY
Updated [WGT/WGST] Temperature [°C] Wind [m/s] Air pressure [hPa] Relative humidity [%] Precipitation [mm]
Present Wind chill Speed Max
25.02 08:00n/an/a2,5 ⇐3,51002n/an/a
25.02 07:00-19,5-25,82,3 ⇐3,01002724,7
25.02 06:00-19,5-25,52,2 ⇖2,91001727,7
25.02 05:00-20,0-27,22,8 ⇖3,61001740,0
25.02 04:00-20,2-27,73,0 ⇐3,71001774,8
25.02 03:00-20,4-28,03,0 ⇙3,81000783,8
25.02 02:00-20,4-26,01,9 ⇙2,61000780,0
25.02 01:00-20,6-28,43,1 ⇐3,7999800,2
25.02 00:00-20,9-29,03,3 ⇙3,9999792,7
24.02 23:00-20,8-28,93,3 ⇐4,1998793,7
24.02 22:00-20,9-25,51,5 ⇙2,2998770,0
24.02 21:00-20,90,01,0 ⇑2,1997770,0
24.02 20:00-20,70,00,3 ⇐1,7996760,0
24.02 19:00-20,9-25,51,5 ⇐1,8995730,0
24.02 18:00-21,0-27,22,1 ⇐2,2994740,0
24.02 17:00-21,0-28,12,6 ⇐3,1994760,0
24.02 16:00-21,2-29,63,4 ⇐4,09937412,2
24.02 15:00-20,9-28,32,8 ⇙3,4992752,2
24.02 14:00-21,0-28,73,0 ⇙3,6992747,9
24.02 13:00-21,2-29,93,6 ⇐4,3991740,0
24.02 12:00-21,3-29,43,2 ⇐3,7990760,1
24.02 11:00-21,0-29,63,6 ⇙4,2990764,3
24.02 10:00-21,1-29,13,2 ⇐3,8990750,7
24.02 09:00-21,5-30,23,6 ⇐4,2989760,6
24.02 08:00-21,7-29,73,1 ⇐3,5988770,0
Position: (72.783333333,-56.133333333)

[Back]